sensor_id;sensor_type;location;lat;lon;timestamp;P1;durP1;ratioP1;P2;durP2;ratioP2
73776;SDS011;62088;50.240;2.696;2022-07-25T00:00:24;8.00;;;2.20;;
73776;SDS011;62088;50.240;2.696;2022-07-25T00:02:52;8.20;;;2.10;;
73776;SDS011;62088;50.240;2.696;2022-07-25T00:05:19;9.38;;;2.10;;
73776;SDS011;62088;50.240;2.696;2022-07-25T00:07:47;5.95;;;1.83;;
73776;SDS011;62088;50.240;2.696;2022-07-25T00:10:15;4.60;;;1.90;;
73776;SDS011;62088;50.240;2.696;2022-07-25T00:12:42;7.00;;;1.83;;
73776;SDS011;62088;50.240;2.696;2022-07-25T00:15:09;10.48;;;2.08;;
73776;SDS011;62088;50.240;2.696;2022-07-25T00:17:37;8.43;;;2.28;;
73776;SDS011;62088;50.240;2.696;2022-07-25T00:20:05;4.75;;;1.92;;
73776;SDS011;62088;50.240;2.696;2022-07-25T00:22:33;7.65;;;2.08;;
73776;SDS011;62088;50.240;2.696;2022-07-25T00:25:00;5.20;;;1.83;;
73776;SDS011;62088;50.240;2.696;2022-07-25T00:27:28;11.25;;;2.13;;
73776;SDS011;62088;50.240;2.696;2022-07-25T00:29:55;3.78;;;1.88;;
73776;SDS011;62088;50.240;2.696;2022-07-25T00:32:22;5.18;;;1.73;;
73776;SDS011;62088;50.240;2.696;2022-07-25T00:34:49;3.03;;;1.50;;
73776;SDS011;62088;50.240;2.696;2022-07-25T00:37:16;7.57;;;2.00;;
73776;SDS011;62088;50.240;2.696;2022-07-25T00:39:43;8.10;;;2.05;;
73776;SDS011;62088;50.240;2.696;2022-07-25T00:42:10;3.40;;;1.50;;
73776;SDS011;62088;50.240;2.696;2022-07-25T00:44:37;6.10;;;1.35;;
73776;SDS011;62088;50.240;2.696;2022-07-25T00:47:04;3.72;;;1.73;;
73776;SDS011;62088;50.240;2.696;2022-07-25T00:49:31;5.68;;;1.60;;
73776;SDS011;62088;50.240;2.696;2022-07-25T00:51:58;5.72;;;1.63;;
73776;SDS011;62088;50.240;2.696;2022-07-25T00:54:26;3.92;;;1.45;;
73776;SDS011;62088;50.240;2.696;2022-07-25T00:56:54;6.95;;;1.63;;
73776;SDS011;62088;50.240;2.696;2022-07-25T00:59:20;5.75;;;1.35;;
73776;SDS011;62088;50.240;2.696;2022-07-25T01:01:47;5.05;;;1.52;;
73776;SDS011;62088;50.240;2.696;2022-07-25T01:04:15;5.80;;;1.98;;
73776;SDS011;62088;50.240;2.696;2022-07-25T01:06:42;5.43;;;1.40;;
73776;SDS011;62088;50.240;2.696;2022-07-25T01:09:10;5.50;;;1.50;;
73776;SDS011;62088;50.240;2.696;2022-07-25T01:11:37;4.70;;;1.63;;
73776;SDS011;62088;50.240;2.696;2022-07-25T01:14:04;3.85;;;1.45;;
73776;SDS011;62088;50.240;2.696;2022-07-25T01:16:32;4.00;;;1.33;;
73776;SDS011;62088;50.240;2.696;2022-07-25T01:18:59;3.97;;;1.30;;
73776;SDS011;62088;50.240;2.696;2022-07-25T01:21:26;4.93;;;1.38;;
73776;SDS011;62088;50.240;2.696;2022-07-25T01:23:54;5.40;;;1.60;;
73776;SDS011;62088;50.240;2.696;2022-07-25T01:26:21;8.63;;;1.75;;
73776;SDS011;62088;50.240;2.696;2022-07-25T01:28:48;4.75;;;1.35;;
73776;SDS011;62088;50.240;2.696;2022-07-25T01:31:15;8.25;;;1.50;;
73776;SDS011;62088;50.240;2.696;2022-07-25T01:33:43;3.88;;;1.35;;
73776;SDS011;62088;50.240;2.696;2022-07-25T01:36:10;3.33;;;1.25;;
73776;SDS011;62088;50.240;2.696;2022-07-25T01:38:38;4.05;;;1.30;;
73776;SDS011;62088;50.240;2.696;2022-07-25T01:41:05;3.58;;;1.30;;
73776;SDS011;62088;50.240;2.696;2022-07-25T01:43:32;2.30;;;1.10;;
73776;SDS011;62088;50.240;2.696;2022-07-25T01:45:59;4.35;;;1.35;;
73776;SDS011;62088;50.240;2.696;2022-07-25T01:48:26;7.65;;;1.10;;
73776;SDS011;62088;50.240;2.696;2022-07-25T01:50:53;5.60;;;1.42;;
73776;SDS011;62088;50.240;2.696;2022-07-25T01:53:22;5.00;;;1.45;;
73776;SDS011;62088;50.240;2.696;2022-07-25T01:55:50;2.97;;;1.30;;
73776;SDS011;62088;50.240;2.696;2022-07-25T01:58:19;2.70;;;1.20;;
73776;SDS011;62088;50.240;2.696;2022-07-25T02:00:47;2.55;;;1.20;;
73776;SDS011;62088;50.240;2.696;2022-07-25T02:03:14;3.65;;;1.30;;
73776;SDS011;62088;50.240;2.696;2022-07-25T02:06:05;6.82;;;1.77;;
73776;SDS011;62088;50.240;2.696;2022-07-25T02:08:33;4.32;;;1.58;;
73776;SDS011;62088;50.240;2.696;2022-07-25T02:11:00;5.00;;;1.60;;
73776;SDS011;62088;50.240;2.696;2022-07-25T02:13:27;4.40;;;1.50;;
73776;SDS011;62088;50.240;2.696;2022-07-25T02:15:54;4.07;;;1.33;;
73776;SDS011;62088;50.240;2.696;2022-07-25T02:18:21;6.13;;;1.73;;
73776;SDS011;62088;50.240;2.696;2022-07-25T02:20:48;5.38;;;1.70;;
73776;SDS011;62088;50.240;2.696;2022-07-25T02:23:15;3.08;;;1.60;;
73776;SDS011;62088;50.240;2.696;2022-07-25T02:25:42;4.57;;;1.65;;
73776;SDS011;62088;50.240;2.696;2022-07-25T02:28:09;3.53;;;1.48;;
73776;SDS011;62088;50.240;2.696;2022-07-25T02:30:36;17.05;;;1.70;;
73776;SDS011;62088;50.240;2.696;2022-07-25T02:33:04;3.58;;;1.70;;
73776;SDS011;62088;50.240;2.696;2022-07-25T02:35:31;4.32;;;1.45;;
73776;SDS011;62088;50.240;2.696;2022-07-25T02:37:58;4.35;;;1.80;;
73776;SDS011;62088;50.240;2.696;2022-07-25T02:40:25;6.18;;;1.85;;
73776;SDS011;62088;50.240;2.696;2022-07-25T02:42:52;3.25;;;1.65;;
73776;SDS011;62088;50.240;2.696;2022-07-25T02:45:19;3.78;;;1.92;;
73776;SDS011;62088;50.240;2.696;2022-07-25T02:47:47;6.60;;;1.95;;
73776;SDS011;62088;50.240;2.696;2022-07-25T02:50:14;5.70;;;2.08;;
73776;SDS011;62088;50.240;2.696;2022-07-25T02:52:42;3.53;;;1.65;;
73776;SDS011;62088;50.240;2.696;2022-07-25T02:55:09;7.90;;;2.30;;
73776;SDS011;62088;50.240;2.696;2022-07-25T02:57:37;3.53;;;1.80;;
73776;SDS011;62088;50.240;2.696;2022-07-25T03:00:04;6.28;;;1.98;;
73776;SDS011;62088;50.240;2.696;2022-07-25T03:02:32;4.85;;;2.00;;
73776;SDS011;62088;50.240;2.696;2022-07-25T03:04:59;6.65;;;2.03;;
73776;SDS011;62088;50.240;2.696;2022-07-25T03:07:27;6.82;;;2.08;;
73776;SDS011;62088;50.240;2.696;2022-07-25T03:09:54;8.70;;;2.10;;
73776;SDS011;62088;50.240;2.696;2022-07-25T03:12:21;6.28;;;1.88;;
73776;SDS011;62088;50.240;2.696;2022-07-25T03:14:48;4.75;;;2.10;;
73776;SDS011;62088;50.240;2.696;2022-07-25T03:17:15;6.43;;;1.67;;
73776;SDS011;62088;50.240;2.696;2022-07-25T03:19:43;6.93;;;1.77;;
73776;SDS011;62088;50.240;2.696;2022-07-25T03:22:10;7.57;;;1.90;;
73776;SDS011;62088;50.240;2.696;2022-07-25T03:24:37;8.15;;;2.10;;
73776;SDS011;62088;50.240;2.696;2022-07-25T03:27:04;10.25;;;2.50;;
73776;SDS011;62088;50.240;2.696;2022-07-25T03:29:31;7.75;;;1.85;;
73776;SDS011;62088;50.240;2.696;2022-07-25T03:31:59;8.70;;;2.28;;
73776;SDS011;62088;50.240;2.696;2022-07-25T03:34:26;7.72;;;2.40;;
73776;SDS011;62088;50.240;2.696;2022-07-25T03:36:53;8.50;;;1.80;;
73776;SDS011;62088;50.240;2.696;2022-07-25T03:39:20;9.32;;;2.30;;
73776;SDS011;62088;50.240;2.696;2022-07-25T03:41:47;7.78;;;1.80;;
73776;SDS011;62088;50.240;2.696;2022-07-25T03:44:14;6.55;;;1.80;;
73776;SDS011;62088;50.240;2.696;2022-07-25T03:46:41;12.23;;;2.10;;
73776;SDS011;62088;50.240;2.696;2022-07-25T03:49:08;10.73;;;2.30;;
73776;SDS011;62088;50.240;2.696;2022-07-25T03:51:36;10.93;;;2.35;;
73776;SDS011;62088;50.240;2.696;2022-07-25T03:54:03;8.60;;;2.53;;
73776;SDS011;62088;50.240;2.696;2022-07-25T03:56:50;6.47;;;2.40;;
73776;SDS011;62088;50.240;2.696;2022-07-25T03:59:18;10.60;;;2.60;;
73776;SDS011;62088;50.240;2.696;2022-07-25T04:01:47;10.18;;;2.35;;
73776;SDS011;62088;50.240;2.696;2022-07-25T04:04:15;9.48;;;2.45;;
73776;SDS011;62088;50.240;2.696;2022-07-25T04:06:43;7.30;;;2.40;;
73776;SDS011;62088;50.240;2.696;2022-07-25T04:09:10;5.85;;;2.03;;
73776;SDS011;62088;50.240;2.696;2022-07-25T04:11:38;6.65;;;2.33;;
73776;SDS011;62088;50.240;2.696;2022-07-25T04:14:05;7.78;;;2.55;;
73776;SDS011;62088;50.240;2.696;2022-07-25T04:16:33;8.20;;;2.50;;
73776;SDS011;62088;50.240;2.696;2022-07-25T04:19:02;10.55;;;2.55;;
73776;SDS011;62088;50.240;2.696;2022-07-25T04:21:31;8.00;;;2.85;;
73776;SDS011;62088;50.240;2.696;2022-07-25T04:23:58;11.07;;;3.30;;
73776;SDS011;62088;50.240;2.696;2022-07-25T04:26:25;10.18;;;2.50;;
73776;SDS011;62088;50.240;2.696;2022-07-25T04:28:52;9.68;;;2.90;;
73776;SDS011;62088;50.240;2.696;2022-07-25T04:31:20;7.13;;;2.55;;
73776;SDS011;62088;50.240;2.696;2022-07-25T04:33:47;8.25;;;2.70;;
73776;SDS011;62088;50.240;2.696;2022-07-25T04:36:14;10.63;;;2.50;;
73776;SDS011;62088;50.240;2.696;2022-07-25T04:38:41;6.20;;;2.20;;
73776;SDS011;62088;50.240;2.696;2022-07-25T04:41:08;9.70;;;2.45;;
73776;SDS011;62088;50.240;2.696;2022-07-25T04:43:35;9.60;;;2.60;;
73776;SDS011;62088;50.240;2.696;2022-07-25T04:46:02;16.20;;;2.08;;
73776;SDS011;62088;50.240;2.696;2022-07-25T04:48:29;13.30;;;2.30;;
73776;SDS011;62088;50.240;2.696;2022-07-25T04:50:56;9.68;;;2.50;;
73776;SDS011;62088;50.240;2.696;2022-07-25T04:53:23;9.23;;;2.10;;
73776;SDS011;62088;50.240;2.696;2022-07-25T04:55:50;12.90;;;2.55;;
73776;SDS011;62088;50.240;2.696;2022-07-25T04:58:18;7.55;;;2.10;;
73776;SDS011;62088;50.240;2.696;2022-07-25T05:00:45;8.25;;;2.17;;
73776;SDS011;62088;50.240;2.696;2022-07-25T05:03:12;11.05;;;2.17;;
73776;SDS011;62088;50.240;2.696;2022-07-25T05:05:39;10.18;;;2.35;;
73776;SDS011;62088;50.240;2.696;2022-07-25T05:08:06;4.88;;;1.83;;
73776;SDS011;62088;50.240;2.696;2022-07-25T05:10:33;8.23;;;1.85;;
73776;SDS011;62088;50.240;2.696;2022-07-25T05:13:00;10.13;;;1.80;;
73776;SDS011;62088;50.240;2.696;2022-07-25T05:15:27;6.65;;;1.45;;
73776;SDS011;62088;50.240;2.696;2022-07-25T05:17:54;10.45;;;2.00;;
73776;SDS011;62088;50.240;2.696;2022-07-25T05:20:21;7.63;;;1.88;;
73776;SDS011;62088;50.240;2.696;2022-07-25T05:22:48;8.80;;;1.40;;
73776;SDS011;62088;50.240;2.696;2022-07-25T05:25:15;8.38;;;1.90;;
73776;SDS011;62088;50.240;2.696;2022-07-25T05:27:43;7.82;;;1.63;;
73776;SDS011;62088;50.240;2.696;2022-07-25T05:30:10;10.90;;;2.13;;
73776;SDS011;62088;50.240;2.696;2022-07-25T05:32:38;8.23;;;1.85;;
73776;SDS011;62088;50.240;2.696;2022-07-25T05:35:06;6.53;;;1.65;;
73776;SDS011;62088;50.240;2.696;2022-07-25T05:37:35;5.60;;;1.50;;
73776;SDS011;62088;50.240;2.696;2022-07-25T05:40:03;5.88;;;1.40;;
73776;SDS011;62088;50.240;2.696;2022-07-25T05:42:31;6.57;;;1.58;;
73776;SDS011;62088;50.240;2.696;2022-07-25T05:44:59;6.07;;;1.50;;
73776;SDS011;62088;50.240;2.696;2022-07-25T05:47:26;9.45;;;1.73;;
73776;SDS011;62088;50.240;2.696;2022-07-25T05:49:53;6.95;;;1.42;;
73776;SDS011;62088;50.240;2.696;2022-07-25T05:52:20;7.53;;;1.83;;
73776;SDS011;62088;50.240;2.696;2022-07-25T05:54:48;4.43;;;1.48;;
73776;SDS011;62088;50.240;2.696;2022-07-25T05:57:15;4.90;;;1.25;;
73776;SDS011;62088;50.240;2.696;2022-07-25T05:59:42;7.90;;;1.63;;
73776;SDS011;62088;50.240;2.696;2022-07-25T06:02:09;7.65;;;1.85;;
73776;SDS011;62088;50.240;2.696;2022-07-25T06:04:36;6.25;;;1.60;;
73776;SDS011;62088;50.240;2.696;2022-07-25T06:07:04;7.18;;;1.85;;
73776;SDS011;62088;50.240;2.696;2022-07-25T06:09:31;6.07;;;1.33;;
73776;SDS011;62088;50.240;2.696;2022-07-25T06:11:58;4.53;;;1.60;;
73776;SDS011;62088;50.240;2.696;2022-07-25T06:14:28;8.98;;;1.60;;
73776;SDS011;62088;50.240;2.696;2022-07-25T06:16:55;5.25;;;1.45;;
73776;SDS011;62088;50.240;2.696;2022-07-25T06:19:22;8.75;;;1.58;;
73776;SDS011;62088;50.240;2.696;2022-07-25T06:21:49;6.07;;;1.42;;
73776;SDS011;62088;50.240;2.696;2022-07-25T06:24:16;6.22;;;1.33;;
73776;SDS011;62088;50.240;2.696;2022-07-25T06:26:44;4.05;;;1.30;;
73776;SDS011;62088;50.240;2.696;2022-07-25T06:29:11;5.10;;;1.40;;
73776;SDS011;62088;50.240;2.696;2022-07-25T06:31:38;4.80;;;1.27;;
73776;SDS011;62088;50.240;2.696;2022-07-25T06:34:06;6.82;;;1.75;;
73776;SDS011;62088;50.240;2.696;2022-07-25T06:36:34;6.53;;;1.50;;
73776;SDS011;62088;50.240;2.696;2022-07-25T06:39:01;6.93;;;1.92;;
73776;SDS011;62088;50.240;2.696;2022-07-25T06:41:29;4.82;;;1.52;;
73776;SDS011;62088;50.240;2.696;2022-07-25T06:43:56;5.85;;;2.15;;
73776;SDS011;62088;50.240;2.696;2022-07-25T06:46:23;5.80;;;2.10;;
73776;SDS011;62088;50.240;2.696;2022-07-25T06:48:52;5.40;;;1.50;;
73776;SDS011;62088;50.240;2.696;2022-07-25T06:51:19;8.60;;;1.85;;
73776;SDS011;62088;50.240;2.696;2022-07-25T06:53:48;8.07;;;1.70;;
73776;SDS011;62088;50.240;2.696;2022-07-25T06:56:15;9.80;;;1.70;;
73776;SDS011;62088;50.240;2.696;2022-07-25T06:58:43;7.40;;;1.73;;
73776;SDS011;62088;50.240;2.696;2022-07-25T07:01:10;9.82;;;1.92;;
73776;SDS011;62088;50.240;2.696;2022-07-25T07:03:37;10.48;;;1.58;;
73776;SDS011;62088;50.240;2.696;2022-07-25T07:06:06;8.73;;;1.80;;
73776;SDS011;62088;50.240;2.696;2022-07-25T07:08:34;7.13;;;1.80;;
73776;SDS011;62088;50.240;2.696;2022-07-25T07:11:03;8.98;;;2.47;;
73776;SDS011;62088;50.240;2.696;2022-07-25T07:13:30;5.45;;;1.65;;
73776;SDS011;62088;50.240;2.696;2022-07-25T07:15:57;8.73;;;2.00;;
73776;SDS011;62088;50.240;2.696;2022-07-25T07:18:24;10.23;;;2.38;;
73776;SDS011;62088;50.240;2.696;2022-07-25T07:20:52;10.38;;;1.90;;
73776;SDS011;62088;50.240;2.696;2022-07-25T07:23:19;7.68;;;2.13;;
73776;SDS011;62088;50.240;2.696;2022-07-25T07:25:46;10.15;;;2.35;;
73776;SDS011;62088;50.240;2.696;2022-07-25T07:28:13;7.25;;;2.00;;
73776;SDS011;62088;50.240;2.696;2022-07-25T07:30:40;7.38;;;2.00;;
73776;SDS011;62088;50.240;2.696;2022-07-25T07:33:28;10.00;;;2.30;;
73776;SDS011;62088;50.240;2.696;2022-07-25T07:35:55;10.10;;;2.28;;
73776;SDS011;62088;50.240;2.696;2022-07-25T07:38:24;8.80;;;2.45;;
73776;SDS011;62088;50.240;2.696;2022-07-25T07:40:52;9.00;;;2.03;;
73776;SDS011;62088;50.240;2.696;2022-07-25T07:43:19;8.88;;;1.83;;
73776;SDS011;62088;50.240;2.696;2022-07-25T07:45:50;6.25;;;2.00;;
73776;SDS011;62088;50.240;2.696;2022-07-25T07:48:17;7.53;;;2.30;;
73776;SDS011;62088;50.240;2.696;2022-07-25T07:50:44;11.60;;;2.10;;
73776;SDS011;62088;50.240;2.696;2022-07-25T07:53:11;11.32;;;2.50;;
73776;SDS011;62088;50.240;2.696;2022-07-25T07:55:38;8.35;;;2.50;;
73776;SDS011;62088;50.240;2.696;2022-07-25T08:00:43;10.05;;;2.22;;
73776;SDS011;62088;50.240;2.696;2022-07-25T08:03:12;10.57;;;2.70;;
73776;SDS011;62088;50.240;2.696;2022-07-25T08:05:43;18.48;;;2.20;;
73776;SDS011;62088;50.240;2.696;2022-07-25T08:08:12;7.55;;;2.05;;
73776;SDS011;62088;50.240;2.696;2022-07-25T08:10:41;6.13;;;2.20;;
73776;SDS011;62088;50.240;2.696;2022-07-25T08:15:44;8.90;;;2.40;;
73776;SDS011;62088;50.240;2.696;2022-07-25T08:18:14;7.45;;;2.40;;
73776;SDS011;62088;50.240;2.696;2022-07-25T08:20:47;10.75;;;2.58;;
73776;SDS011;62088;50.240;2.696;2022-07-25T08:23:15;8.38;;;2.60;;
73776;SDS011;62088;50.240;2.696;2022-07-25T08:25:42;10.23;;;2.42;;
73776;SDS011;62088;50.240;2.696;2022-07-25T08:28:10;7.32;;;2.30;;
73776;SDS011;62088;50.240;2.696;2022-07-25T08:30:38;8.98;;;3.35;;
73776;SDS011;62088;50.240;2.696;2022-07-25T08:33:07;8.77;;;2.47;;
73776;SDS011;62088;50.240;2.696;2022-07-25T08:35:39;10.07;;;2.27;;
73776;SDS011;62088;50.240;2.696;2022-07-25T08:38:10;7.57;;;2.33;;
73776;SDS011;62088;50.240;2.696;2022-07-25T08:40:37;9.48;;;2.38;;
73776;SDS011;62088;50.240;2.696;2022-07-25T08:43:04;11.02;;;2.42;;
73776;SDS011;62088;50.240;2.696;2022-07-25T08:45:31;12.52;;;2.72;;
73776;SDS011;62088;50.240;2.696;2022-07-25T08:47:59;5.75;;;1.85;;
73776;SDS011;62088;50.240;2.696;2022-07-25T08:50:29;8.57;;;2.33;;
73776;SDS011;62088;50.240;2.696;2022-07-25T08:52:56;7.43;;;2.13;;
73776;SDS011;62088;50.240;2.696;2022-07-25T08:55:43;11.93;;;2.67;;
73776;SDS011;62088;50.240;2.696;2022-07-25T08:58:12;7.15;;;2.00;;
73776;SDS011;62088;50.240;2.696;2022-07-25T09:00:40;9.55;;;2.58;;
73776;SDS011;62088;50.240;2.696;2022-07-25T09:03:08;9.23;;;2.63;;
73776;SDS011;62088;50.240;2.696;2022-07-25T09:05:36;9.25;;;2.25;;
73776;SDS011;62088;50.240;2.696;2022-07-25T09:08:08;13.90;;;2.65;;
73776;SDS011;62088;50.240;2.696;2022-07-25T09:10:36;8.83;;;2.30;;
73776;SDS011;62088;50.240;2.696;2022-07-25T09:13:08;12.40;;;2.40;;
73776;SDS011;62088;50.240;2.696;2022-07-25T09:15:46;13.45;;;2.50;;
73776;SDS011;62088;50.240;2.696;2022-07-25T09:18:16;12.68;;;2.97;;
73776;SDS011;62088;50.240;2.696;2022-07-25T09:20:45;15.05;;;2.83;;
73776;SDS011;62088;50.240;2.696;2022-07-25T09:23:25;17.13;;;2.80;;
73776;SDS011;62088;50.240;2.696;2022-07-25T09:26:00;9.52;;;2.80;;
73776;SDS011;62088;50.240;2.696;2022-07-25T09:28:39;12.40;;;2.63;;
73776;SDS011;62088;50.240;2.696;2022-07-25T09:31:11;11.25;;;3.10;;
73776;SDS011;62088;50.240;2.696;2022-07-25T09:33:50;14.18;;;3.28;;
73776;SDS011;62088;50.240;2.696;2022-07-25T09:36:22;11.35;;;2.92;;
73776;SDS011;62088;50.240;2.696;2022-07-25T09:38:52;14.05;;;2.75;;
73776;SDS011;62088;50.240;2.696;2022-07-25T09:41:20;11.82;;;2.97;;
73776;SDS011;62088;50.240;2.696;2022-07-25T09:43:47;11.38;;;2.67;;
73776;SDS011;62088;50.240;2.696;2022-07-25T09:46:14;10.00;;;2.50;;
73776;SDS011;62088;50.240;2.696;2022-07-25T09:48:43;17.10;;;3.25;;
73776;SDS011;62088;50.240;2.696;2022-07-25T09:51:11;9.10;;;2.78;;
73776;SDS011;62088;50.240;2.696;2022-07-25T09:53:38;10.57;;;2.60;;
73776;SDS011;62088;50.240;2.696;2022-07-25T09:56:06;10.43;;;2.50;;
73776;SDS011;62088;50.240;2.696;2022-07-25T09:58:33;11.18;;;2.40;;
73776;SDS011;62088;50.240;2.696;2022-07-25T10:01:02;13.13;;;3.10;;
73776;SDS011;62088;50.240;2.696;2022-07-25T10:03:49;12.95;;;2.75;;
73776;SDS011;62088;50.240;2.696;2022-07-25T10:06:20;12.90;;;2.88;;
73776;SDS011;62088;50.240;2.696;2022-07-25T10:08:48;8.85;;;2.90;;
73776;SDS011;62088;50.240;2.696;2022-07-25T10:11:18;9.05;;;2.65;;
73776;SDS011;62088;50.240;2.696;2022-07-25T10:13:47;10.75;;;2.35;;
73776;SDS011;62088;50.240;2.696;2022-07-25T10:16:21;12.77;;;2.35;;
73776;SDS011;62088;50.240;2.696;2022-07-25T10:21:19;10.10;;;2.60;;
73776;SDS011;62088;50.240;2.696;2022-07-25T10:24:06;7.07;;;2.05;;
73776;SDS011;62088;50.240;2.696;2022-07-25T10:26:36;9.05;;;2.28;;
73776;SDS011;62088;50.240;2.696;2022-07-25T10:29:08;10.90;;;2.55;;
73776;SDS011;62088;50.240;2.696;2022-07-25T10:31:36;9.23;;;2.42;;
73776;SDS011;62088;50.240;2.696;2022-07-25T10:34:15;11.38;;;2.47;;
73776;SDS011;62088;50.240;2.696;2022-07-25T10:36:49;13.05;;;2.13;;
73776;SDS011;62088;50.240;2.696;2022-07-25T10:39:19;6.85;;;2.22;;
73776;SDS011;62088;50.240;2.696;2022-07-25T10:41:54;10.20;;;2.22;;
73776;SDS011;62088;50.240;2.696;2022-07-25T10:44:38;9.18;;;2.00;;
73776;SDS011;62088;50.240;2.696;2022-07-25T10:47:10;6.78;;;2.08;;
73776;SDS011;62088;50.240;2.696;2022-07-25T10:49:40;14.20;;;3.30;;
73776;SDS011;62088;50.240;2.696;2022-07-25T10:52:28;11.30;;;2.38;;
73776;SDS011;62088;50.240;2.696;2022-07-25T10:54:56;9.88;;;2.58;;
73776;SDS011;62088;50.240;2.696;2022-07-25T10:57:25;13.55;;;2.70;;
73776;SDS011;62088;50.240;2.696;2022-07-25T11:00:06;8.50;;;2.00;;
73776;SDS011;62088;50.240;2.696;2022-07-25T11:02:34;9.45;;;1.60;;
73776;SDS011;62088;50.240;2.696;2022-07-25T11:05:02;20.00;;;2.10;;
73776;SDS011;62088;50.240;2.696;2022-07-25T11:07:29;6.70;;;1.77;;
73776;SDS011;62088;50.240;2.696;2022-07-25T11:10:02;7.85;;;2.25;;
73776;SDS011;62088;50.240;2.696;2022-07-25T11:12:31;6.05;;;1.48;;
73776;SDS011;62088;50.240;2.696;2022-07-25T11:14:59;7.03;;;1.65;;
73776;SDS011;62088;50.240;2.696;2022-07-25T11:17:30;9.98;;;2.00;;
73776;SDS011;62088;50.240;2.696;2022-07-25T11:19:59;7.97;;;1.80;;
73776;SDS011;62088;50.240;2.696;2022-07-25T11:22:28;7.22;;;1.83;;
73776;SDS011;62088;50.240;2.696;2022-07-25T11:24:56;8.27;;;2.20;;
73776;SDS011;62088;50.240;2.696;2022-07-25T11:27:27;7.43;;;1.70;;
73776;SDS011;62088;50.240;2.696;2022-07-25T11:32:46;7.63;;;2.03;;
73776;SDS011;62088;50.240;2.696;2022-07-25T11:35:20;11.52;;;2.65;;
73776;SDS011;62088;50.240;2.696;2022-07-25T11:37:50;17.60;;;2.35;;
73776;SDS011;62088;50.240;2.696;2022-07-25T11:40:18;10.00;;;1.95;;
73776;SDS011;62088;50.240;2.696;2022-07-25T11:42:48;9.40;;;2.30;;
73776;SDS011;62088;50.240;2.696;2022-07-25T11:47:48;6.95;;;1.95;;
73776;SDS011;62088;50.240;2.696;2022-07-25T11:50:30;13.07;;;2.10;;
73776;SDS011;62088;50.240;2.696;2022-07-25T11:52:59;7.07;;;1.83;;
73776;SDS011;62088;50.240;2.696;2022-07-25T11:55:28;11.98;;;1.90;;
73776;SDS011;62088;50.240;2.696;2022-07-25T11:57:58;16.88;;;2.00;;
73776;SDS011;62088;50.240;2.696;2022-07-25T12:00:27;8.35;;;1.45;;
73776;SDS011;62088;50.240;2.696;2022-07-25T12:03:04;8.40;;;1.70;;
73776;SDS011;62088;50.240;2.696;2022-07-25T12:05:42;11.10;;;2.22;;
73776;SDS011;62088;50.240;2.696;2022-07-25T12:08:10;11.45;;;1.73;;
73776;SDS011;62088;50.240;2.696;2022-07-25T12:10:45;9.20;;;2.03;;
73776;SDS011;62088;50.240;2.696;2022-07-25T12:13:21;8.13;;;1.80;;
73776;SDS011;62088;50.240;2.696;2022-07-25T12:15:49;12.23;;;1.92;;
73776;SDS011;62088;50.240;2.696;2022-07-25T12:18:16;7.05;;;1.50;;
73776;SDS011;62088;50.240;2.696;2022-07-25T12:20:44;9.55;;;2.03;;
73776;SDS011;62088;50.240;2.696;2022-07-25T12:23:11;10.80;;;1.55;;
73776;SDS011;62088;50.240;2.696;2022-07-25T12:25:43;7.07;;;1.42;;
73776;SDS011;62088;50.240;2.696;2022-07-25T12:28:11;7.80;;;1.40;;
73776;SDS011;62088;50.240;2.696;2022-07-25T12:30:39;6.35;;;1.17;;
73776;SDS011;62088;50.240;2.696;2022-07-25T12:33:08;5.00;;;0.90;;
73776;SDS011;62088;50.240;2.696;2022-07-25T12:35:36;5.93;;;1.30;;
73776;SDS011;62088;50.240;2.696;2022-07-25T12:38:05;8.15;;;1.20;;
73776;SDS011;62088;50.240;2.696;2022-07-25T12:40:32;6.22;;;1.27;;
73776;SDS011;62088;50.240;2.696;2022-07-25T12:42:59;7.97;;;1.60;;
73776;SDS011;62088;50.240;2.696;2022-07-25T12:45:26;6.70;;;1.55;;
73776;SDS011;62088;50.240;2.696;2022-07-25T12:47:54;14.85;;;1.80;;
73776;SDS011;62088;50.240;2.696;2022-07-25T12:50:21;11.18;;;1.50;;
73776;SDS011;62088;50.240;2.696;2022-07-25T12:52:51;6.78;;;1.40;;
73776;SDS011;62088;50.240;2.696;2022-07-25T12:55:19;7.45;;;1.10;;
73776;SDS011;62088;50.240;2.696;2022-07-25T12:57:47;8.32;;;1.27;;
73776;SDS011;62088;50.240;2.696;2022-07-25T13:00:15;7.15;;;1.25;;
73776;SDS011;62088;50.240;2.696;2022-07-25T13:02:44;4.65;;;1.20;;
73776;SDS011;62088;50.240;2.696;2022-07-25T13:05:13;14.07;;;1.60;;
73776;SDS011;62088;50.240;2.696;2022-07-25T13:07:40;6.43;;;1.13;;
73776;SDS011;62088;50.240;2.696;2022-07-25T13:10:07;8.52;;;1.92;;
73776;SDS011;62088;50.240;2.696;2022-07-25T13:12:35;4.57;;;1.05;;
73776;SDS011;62088;50.240;2.696;2022-07-25T13:15:02;4.03;;;0.88;;
73776;SDS011;62088;50.240;2.696;2022-07-25T13:17:30;5.20;;;1.30;;
73776;SDS011;62088;50.240;2.696;2022-07-25T13:19:57;7.50;;;1.40;;
73776;SDS011;62088;50.240;2.696;2022-07-25T13:22:25;3.75;;;0.90;;
73776;SDS011;62088;50.240;2.696;2022-07-25T13:24:52;7.32;;;1.27;;
73776;SDS011;62088;50.240;2.696;2022-07-25T13:27:20;9.25;;;1.25;;
73776;SDS011;62088;50.240;2.696;2022-07-25T13:29:48;4.10;;;0.95;;
73776;SDS011;62088;50.240;2.696;2022-07-25T13:32:20;14.55;;;1.80;;
73776;SDS011;62088;50.240;2.696;2022-07-25T13:34:47;6.22;;;0.90;;
73776;SDS011;62088;50.240;2.696;2022-07-25T13:37:15;7.20;;;1.00;;
73776;SDS011;62088;50.240;2.696;2022-07-25T13:39:42;4.45;;;1.00;;
73776;SDS011;62088;50.240;2.696;2022-07-25T13:42:09;7.10;;;1.10;;
73776;SDS011;62088;50.240;2.696;2022-07-25T13:44:36;14.27;;;1.52;;
73776;SDS011;62088;50.240;2.696;2022-07-25T13:47:03;11.85;;;1.77;;
73776;SDS011;62088;50.240;2.696;2022-07-25T13:49:30;9.73;;;1.23;;
73776;SDS011;62088;50.240;2.696;2022-07-25T13:51:58;6.13;;;1.20;;
73776;SDS011;62088;50.240;2.696;2022-07-25T13:54:25;5.68;;;1.45;;
73776;SDS011;62088;50.240;2.696;2022-07-25T13:56:52;7.90;;;1.52;;
73776;SDS011;62088;50.240;2.696;2022-07-25T13:59:19;9.15;;;1.35;;
73776;SDS011;62088;50.240;2.696;2022-07-25T14:01:48;9.02;;;1.73;;
73776;SDS011;62088;50.240;2.696;2022-07-25T14:04:15;6.05;;;1.48;;
73776;SDS011;62088;50.240;2.696;2022-07-25T14:06:42;8.30;;;1.60;;
73776;SDS011;62088;50.240;2.696;2022-07-25T14:09:10;5.88;;;1.25;;
73776;SDS011;62088;50.240;2.696;2022-07-25T14:11:37;7.65;;;1.30;;
73776;SDS011;62088;50.240;2.696;2022-07-25T14:14:04;11.13;;;1.65;;
73776;SDS011;62088;50.240;2.696;2022-07-25T14:16:31;5.53;;;1.30;;
73776;SDS011;62088;50.240;2.696;2022-07-25T14:19:00;5.78;;;1.30;;
73776;SDS011;62088;50.240;2.696;2022-07-25T14:21:28;5.68;;;1.17;;
73776;SDS011;62088;50.240;2.696;2022-07-25T14:23:55;6.75;;;1.48;;
73776;SDS011;62088;50.240;2.696;2022-07-25T14:26:22;5.70;;;1.15;;
73776;SDS011;62088;50.240;2.696;2022-07-25T14:28:51;6.25;;;1.33;;
73776;SDS011;62088;50.240;2.696;2022-07-25T14:31:18;5.80;;;1.25;;
73776;SDS011;62088;50.240;2.696;2022-07-25T14:33:50;10.30;;;1.33;;
73776;SDS011;62088;50.240;2.696;2022-07-25T14:36:17;6.35;;;1.08;;
73776;SDS011;62088;50.240;2.696;2022-07-25T14:38:44;4.68;;;1.13;;
73776;SDS011;62088;50.240;2.696;2022-07-25T14:41:13;4.93;;;1.33;;
73776;SDS011;62088;50.240;2.696;2022-07-25T14:43:41;6.70;;;1.40;;
73776;SDS011;62088;50.240;2.696;2022-07-25T14:46:08;6.93;;;1.52;;
73776;SDS011;62088;50.240;2.696;2022-07-25T14:48:35;7.72;;;1.35;;
73776;SDS011;62088;50.240;2.696;2022-07-25T14:51:04;10.50;;;1.33;;
73776;SDS011;62088;50.240;2.696;2022-07-25T14:53:32;14.10;;;1.50;;
73776;SDS011;62088;50.240;2.696;2022-07-25T14:56:00;7.22;;;1.08;;
73776;SDS011;62088;50.240;2.696;2022-07-25T14:58:28;9.70;;;1.42;;
73776;SDS011;62088;50.240;2.696;2022-07-25T15:00:55;10.75;;;1.40;;
73776;SDS011;62088;50.240;2.696;2022-07-25T15:03:23;13.98;;;1.58;;